createdAt,value
2022-09-30T00:00:58.177Z,8.30
2022-09-30T00:03:25.363Z,8.30
2022-09-30T00:05:59.274Z,8.40
2022-09-30T00:08:26.450Z,8.40
2022-09-30T00:11:01.110Z,8.40
2022-09-30T00:13:28.288Z,8.40
2022-09-30T00:15:55.483Z,8.40
2022-09-30T00:18:22.663Z,8.40
2022-09-30T00:20:49.825Z,8.30
2022-09-30T00:23:16.978Z,8.20
2022-09-30T00:25:44.123Z,8.20
2022-09-30T00:28:11.278Z,8.20
2022-09-30T00:30:38.424Z,8.20
2022-09-30T00:33:05.574Z,8.20
2022-09-30T00:35:32.844Z,8.30
2022-09-30T00:38:00.143Z,8.30
2022-09-30T00:40:27.412Z,8.30
2022-09-30T00:42:55.076Z,8.30
2022-09-30T00:45:22.232Z,8.30
2022-09-30T00:47:53.754Z,8.30
2022-09-30T00:50:35.006Z,8.30
2022-09-30T00:53:19.975Z,8.20
2022-09-30T00:56:08.970Z,8.20
2022-09-30T00:58:49.708Z,8.30
2022-09-30T01:01:17.191Z,8.30
2022-09-30T01:03:51.062Z,8.20
2022-09-30T01:06:18.659Z,8.20
2022-09-30T01:08:45.890Z,8.20
2022-09-30T01:11:13.579Z,8.20
2022-09-30T01:13:41.252Z,8.20
2022-09-30T01:16:46.006Z,8.20
2022-09-30T01:19:43.830Z,8.30
2022-09-30T01:22:28.676Z,8.30
2022-09-30T01:25:17.770Z,8.30
2022-09-30T01:28:07.912Z,8.30
2022-09-30T01:30:55.780Z,8.30
2022-09-30T01:33:28.408Z,8.30
2022-09-30T01:36:20.860Z,8.30
2022-09-30T01:39:00.024Z,8.30
2022-09-30T01:41:52.295Z,8.30
2022-09-30T01:44:43.624Z,8.30
2022-09-30T01:47:18.294Z,8.30
2022-09-30T01:49:50.443Z,8.30
2022-09-30T01:52:23.099Z,8.30
2022-09-30T01:55:11.100Z,8.30
2022-09-30T01:57:55.439Z,8.20
2022-09-30T02:00:22.608Z,8.20
2022-09-30T02:03:02.153Z,8.20
2022-09-30T02:05:41.598Z,8.30
2022-09-30T02:08:21.500Z,8.30
2022-09-30T02:11:13.195Z,8.30
2022-09-30T02:13:49.283Z,8.30
2022-09-30T02:16:20.868Z,8.20
2022-09-30T02:18:50.287Z,8.20
2022-09-30T02:21:23.275Z,8.20
2022-09-30T02:23:52.264Z,8.20
2022-09-30T02:26:22.075Z,8.20
2022-09-30T02:28:54.205Z,8.20
2022-09-30T02:31:21.975Z,8.20
2022-09-30T02:33:58.601Z,8.20
2022-09-30T02:36:32.975Z,8.20
2022-09-30T02:39:03.211Z,8.20
2022-09-30T02:41:30.931Z,8.20
2022-09-30T02:43:58.087Z,8.20
2022-09-30T02:46:39.639Z,8.20
2022-09-30T02:49:45.418Z,8.20
2022-09-30T02:52:32.554Z,8.20
2022-09-30T02:55:17.643Z,8.10
2022-09-30T02:57:47.804Z,8.10
2022-09-30T03:00:16.099Z,8.10
2022-09-30T03:02:43.304Z,8.10
2022-09-30T03:05:10.631Z,8.10
2022-09-30T03:07:38.043Z,8.10
2022-09-30T03:10:15.703Z,8.10
2022-09-30T03:13:04.572Z,8.10
2022-09-30T03:15:54.097Z,8.10
2022-09-30T03:18:33.054Z,8.00
2022-09-30T03:21:09.676Z,8.00
2022-09-30T03:24:05.559Z,7.90
2022-09-30T03:26:36.799Z,7.90
2022-09-30T03:29:25.894Z,7.80
2022-09-30T03:32:01.658Z,7.90
2022-09-30T03:34:50.712Z,7.90
2022-09-30T03:37:28.447Z,7.90
2022-09-30T03:40:03.612Z,7.90
2022-09-30T03:42:45.724Z,7.90
2022-09-30T03:45:30.263Z,7.90
2022-09-30T03:47:59.160Z,8.00
2022-09-30T03:50:26.302Z,8.00
2022-09-30T03:52:53.450Z,7.90
2022-09-30T03:55:22.358Z,7.90
2022-09-30T03:57:50.021Z,7.90
2022-09-30T04:00:18.930Z,7.80
2022-09-30T04:02:46.334Z,7.90
2022-09-30T04:05:13.602Z,7.90
2022-09-30T04:07:40.742Z,7.90
2022-09-30T04:10:08.327Z,7.90
2022-09-30T04:12:35.470Z,7.90
2022-09-30T04:15:02.654Z,7.80
2022-09-30T04:17:29.855Z,7.80
2022-09-30T04:19:57.016Z,7.90
2022-09-30T04:22:26.419Z,7.90
2022-09-30T04:24:53.851Z,7.90
2022-09-30T04:27:21.031Z,7.90
2022-09-30T04:29:48.178Z,7.90
2022-09-30T04:32:15.327Z,7.90
2022-09-30T04:34:42.479Z,7.90
2022-09-30T04:37:11.075Z,7.90
2022-09-30T04:39:38.426Z,7.80
2022-09-30T04:42:06.195Z,7.80
2022-09-30T04:44:33.368Z,7.80
2022-09-30T04:47:00.681Z,7.80
2022-09-30T04:49:27.839Z,7.80
2022-09-30T04:51:55.156Z,7.80
2022-09-30T04:54:22.387Z,7.80
2022-09-30T04:56:49.540Z,7.80
2022-09-30T04:59:16.722Z,7.80
2022-09-30T05:01:44.677Z,7.70
2022-09-30T05:04:12.305Z,7.70
2022-09-30T05:06:42.579Z,7.70
2022-09-30T05:09:09.823Z,7.70
2022-09-30T05:11:42.540Z,7.70
2022-09-30T05:14:10.000Z,7.70
2022-09-30T05:16:37.585Z,7.70
2022-09-30T05:19:04.959Z,7.70
2022-09-30T05:21:32.124Z,7.70
2022-09-30T05:23:59.339Z,7.70
2022-09-30T05:26:26.536Z,7.70
2022-09-30T05:28:53.778Z,7.70
2022-09-30T05:31:21.102Z,7.70
2022-09-30T05:33:48.375Z,7.70
2022-09-30T05:36:16.480Z,7.70
2022-09-30T05:38:43.828Z,7.70
2022-09-30T05:41:12.563Z,7.70
2022-09-30T05:43:40.587Z,7.70
2022-09-30T05:46:08.001Z,7.70
2022-09-30T05:48:35.175Z,7.80
2022-09-30T05:51:02.466Z,7.70
2022-09-30T05:53:31.130Z,7.80
2022-09-30T05:55:58.404Z,7.80
2022-09-30T05:58:25.622Z,7.80
2022-09-30T06:00:52.843Z,7.90
2022-09-30T06:03:20.059Z,7.90
2022-09-30T06:05:47.331Z,8.00
2022-09-30T06:08:14.833Z,8.00
2022-09-30T06:10:43.100Z,8.00
2022-09-30T06:13:10.592Z,8.10
2022-09-30T06:15:39.575Z,8.10
2022-09-30T06:18:07.067Z,8.20
2022-09-30T06:20:34.268Z,8.20
2022-09-30T06:23:01.496Z,8.30
2022-09-30T06:25:29.327Z,8.30
2022-09-30T06:27:56.675Z,8.40
2022-09-30T06:30:24.067Z,8.40
2022-09-30T06:32:52.059Z,8.40
2022-09-30T06:35:20.439Z,8.50
2022-09-30T06:37:50.808Z,8.50
2022-09-30T06:40:18.112Z,8.60
2022-09-30T06:42:45.291Z,8.60
2022-09-30T06:45:21.708Z,8.60
2022-09-30T06:48:00.411Z,8.60
2022-09-30T06:50:28.722Z,8.70
2022-09-30T06:52:59.459Z,8.70
2022-09-30T06:55:27.578Z,8.80
2022-09-30T06:57:56.038Z,8.90
2022-09-30T07:00:24.005Z,8.90
2022-09-30T07:02:51.195Z,9.00
2022-09-30T07:05:18.926Z,9.10
2022-09-30T07:07:46.366Z,9.10
2022-09-30T07:10:13.524Z,9.10
2022-09-30T07:12:42.200Z,9.20
2022-09-30T07:15:13.551Z,9.20
2022-09-30T07:17:41.044Z,9.30
2022-09-30T07:20:08.476Z,9.30
2022-09-30T07:22:35.856Z,9.30
2022-09-30T07:25:04.324Z,9.40
2022-09-30T07:27:32.663Z,9.40
2022-09-30T07:32:47.779Z,9.40
2022-09-30T07:35:15.057Z,9.40
2022-09-30T07:37:42.252Z,9.40
2022-09-30T07:40:11.006Z,9.50
2022-09-30T07:42:39.304Z,9.50
2022-09-30T07:45:06.867Z,9.50
2022-09-30T07:47:34.030Z,9.60
2022-09-30T07:50:20.165Z,9.60
2022-09-30T07:52:47.352Z,9.60
2022-09-30T07:55:14.540Z,9.70
2022-09-30T07:57:41.699Z,9.70
2022-09-30T08:00:30.182Z,9.80
2022-09-30T08:02:56.813Z,9.80
2022-09-30T08:05:23.992Z,9.80
2022-09-30T08:07:51.156Z,9.80
2022-09-30T08:12:53.424Z,9.90
2022-09-30T08:15:23.226Z,9.90
2022-09-30T08:17:50.408Z,10.00
2022-09-30T08:20:22.095Z,10.00
2022-09-30T08:22:55.935Z,10.00
2022-09-30T08:25:23.296Z,10.10
2022-09-30T08:27:50.552Z,10.20
2022-09-30T08:30:17.757Z,10.30
2022-09-30T08:32:44.937Z,10.40
2022-09-30T08:35:12.084Z,10.40
2022-09-30T08:37:39.247Z,10.40
2022-09-30T08:40:07.320Z,10.50
2022-09-30T08:42:50.289Z,10.70
2022-09-30T08:45:23.127Z,10.80
2022-09-30T08:48:06.892Z,10.80
2022-09-30T08:50:53.988Z,10.90
2022-09-30T08:53:25.434Z,10.90
2022-09-30T08:55:52.660Z,10.90
2022-09-30T08:58:27.948Z,10.90
2022-09-30T09:00:58.098Z,11.00
2022-09-30T09:03:29.872Z,11.00
2022-09-30T09:06:16.654Z,10.90
2022-09-30T09:08:50.001Z,10.80
2022-09-30T09:11:28.685Z,10.80
2022-09-30T09:14:14.444Z,10.80
2022-09-30T09:16:51.643Z,10.80
2022-09-30T09:19:21.986Z,10.80
2022-09-30T09:21:54.817Z,10.90
2022-09-30T09:24:26.824Z,10.90
2022-09-30T09:26:54.802Z,10.90
2022-09-30T09:29:39.051Z,10.80
2022-09-30T09:32:17.408Z,10.80
2022-09-30T09:34:46.111Z,10.80
2022-09-30T09:37:50.538Z,10.80
2022-09-30T09:40:57.242Z,10.80
2022-09-30T09:43:38.085Z,10.80
2022-09-30T09:46:30.743Z,10.80
2022-09-30T09:49:32.175Z,10.90
2022-09-30T09:51:59.312Z,10.90
2022-09-30T09:54:28.092Z,10.90
2022-09-30T09:56:55.241Z,11.00
2022-09-30T09:59:23.016Z,11.00
2022-09-30T10:01:52.054Z,11.00
2022-09-30T10:04:30.484Z,11.00
2022-09-30T10:07:01.227Z,11.10
2022-09-30T10:09:38.447Z,11.10
2022-09-30T10:12:05.590Z,11.30
2022-09-30T10:14:33.851Z,11.40
2022-09-30T10:17:02.139Z,11.50
2022-09-30T10:19:30.800Z,11.60
2022-09-30T10:22:18.690Z,11.80
2022-09-30T10:24:45.973Z,11.90
2022-09-30T10:27:32.892Z,11.90
2022-09-30T10:30:00.044Z,11.90
2022-09-30T10:32:27.319Z,11.90
2022-09-30T10:34:56.619Z,11.80
2022-09-30T10:37:24.089Z,11.70
2022-09-30T10:40:01.609Z,11.70
2022-09-30T10:42:30.997Z,11.60
2022-09-30T10:45:04.348Z,11.60
2022-09-30T10:47:36.638Z,11.50
2022-09-30T10:50:08.193Z,11.50
2022-09-30T10:52:51.527Z,11.50
2022-09-30T10:55:22.053Z,11.50
2022-09-30T10:57:50.140Z,11.50
2022-09-30T11:00:22.002Z,11.40
2022-09-30T11:02:56.298Z,11.40
2022-09-30T11:05:26.792Z,11.50
2022-09-30T11:08:12.519Z,11.50
2022-09-30T11:10:54.001Z,11.50
2022-09-30T11:13:34.861Z,11.50
2022-09-30T11:16:24.033Z,11.50
2022-09-30T11:18:56.222Z,11.50
2022-09-30T11:21:49.496Z,11.50
2022-09-30T11:24:36.563Z,11.50
2022-09-30T11:27:15.696Z,11.50
2022-09-30T11:29:57.944Z,11.50
2022-09-30T11:32:47.041Z,11.40
2022-09-30T11:35:35.521Z,11.40
2022-09-30T11:38:15.290Z,11.40
2022-09-30T11:41:07.419Z,11.40
2022-09-30T11:43:34.547Z,11.30
2022-09-30T11:46:35.302Z,11.30
2022-09-30T11:49:05.492Z,11.20
2022-09-30T11:52:03.394Z,11.20
2022-09-30T11:54:36.735Z,11.20
2022-09-30T11:57:37.594Z,11.20
2022-09-30T12:00:15.836Z,11.30
2022-09-30T12:02:48.431Z,11.30
2022-09-30T12:05:26.143Z,11.40
2022-09-30T12:07:58.851Z,11.40
2022-09-30T12:10:29.307Z,11.50
2022-09-30T12:13:06.615Z,11.60
2022-09-30T12:15:33.892Z,11.70
2022-09-30T12:18:03.615Z,11.80
2022-09-30T12:20:42.335Z,12.00
2022-09-30T12:23:20.776Z,12.00
2022-09-30T12:25:56.015Z,12.00
2022-09-30T12:29:09.950Z,12.00
2022-09-30T12:31:56.620Z,12.10
2022-09-30T12:34:44.179Z,12.10
2022-09-30T12:37:17.211Z,12.10
2022-09-30T12:40:02.985Z,12.10
2022-09-30T12:43:04.358Z,12.10
2022-09-30T12:45:45.359Z,12.10
2022-09-30T12:48:17.574Z,12.10
2022-09-30T12:50:50.064Z,12.20
2022-09-30T12:53:29.005Z,12.20
2022-09-30T12:56:12.107Z,12.30
2022-09-30T12:58:43.889Z,12.30
2022-09-30T13:01:27.740Z,12.30
2022-09-30T13:04:00.695Z,12.30
2022-09-30T13:06:48.338Z,12.30
2022-09-30T13:09:22.693Z,12.40
2022-09-30T13:11:56.323Z,12.40
2022-09-30T13:14:40.147Z,12.30
2022-09-30T13:17:07.275Z,12.30
2022-09-30T13:19:40.832Z,12.30
2022-09-30T13:22:24.459Z,12.30
2022-09-30T13:24:57.853Z,12.40
2022-09-30T13:27:53.665Z,12.40
2022-09-30T13:30:20.837Z,12.30
2022-09-30T13:33:04.379Z,12.30
2022-09-30T13:35:40.674Z,12.30
2022-09-30T13:38:14.029Z,12.30
2022-09-30T13:41:01.923Z,12.30
2022-09-30T13:44:04.335Z,12.30
2022-09-30T13:46:37.980Z,12.30
2022-09-30T13:49:10.647Z,12.30
2022-09-30T13:51:40.187Z,12.30
2022-09-30T13:54:12.148Z,12.30
2022-09-30T13:56:40.731Z,12.40
2022-09-30T13:59:11.149Z,12.40
2022-09-30T14:01:56.574Z,12.40
2022-09-30T14:04:52.362Z,12.40
2022-09-30T14:07:43.995Z,12.40
2022-09-30T14:10:37.636Z,12.40
2022-09-30T14:13:33.827Z,12.40
2022-09-30T14:16:33.790Z,12.30
2022-09-30T14:19:16.443Z,12.30
2022-09-30T14:21:45.336Z,12.30
2022-09-30T14:24:17.462Z,12.30
2022-09-30T14:27:16.571Z,12.30
2022-09-30T14:30:04.247Z,12.30
2022-09-30T14:32:43.452Z,12.40
2022-09-30T14:35:14.428Z,12.30
2022-09-30T14:37:50.886Z,12.30
2022-09-30T14:40:20.688Z,12.30
2022-09-30T14:42:47.960Z,12.30
2022-09-30T14:45:26.802Z,12.30
2022-09-30T14:47:56.032Z,12.30
2022-09-30T14:50:28.193Z,12.30
2022-09-30T14:53:00.445Z,12.30
2022-09-30T14:55:31.768Z,12.30
2022-09-30T14:58:23.255Z,12.20
2022-09-30T15:01:01.383Z,12.20
2022-09-30T15:03:28.662Z,12.20
2022-09-30T15:05:57.028Z,12.20
2022-09-30T15:08:24.304Z,12.20
2022-09-30T15:10:53.179Z,12.20
2022-09-30T15:13:22.752Z,12.10
2022-09-30T15:15:50.078Z,12.10
2022-09-30T15:18:33.250Z,12.10
2022-09-30T15:21:12.685Z,12.10
2022-09-30T15:23:44.769Z,12.00
2022-09-30T15:26:12.280Z,12.00
2022-09-30T15:28:39.793Z,12.00
2022-09-30T15:31:07.768Z,12.00
2022-09-30T15:33:34.974Z,12.00
2022-09-30T15:36:14.439Z,12.00
2022-09-30T15:38:41.622Z,12.00
2022-09-30T15:41:10.194Z,12.00
2022-09-30T15:43:42.691Z,12.00
2022-09-30T15:46:33.747Z,12.00
2022-09-30T15:49:02.377Z,11.90
2022-09-30T15:51:36.814Z,11.90
2022-09-30T15:54:16.284Z,11.90
2022-09-30T15:56:43.562Z,11.90
2022-09-30T15:59:11.975Z,11.90
2022-09-30T16:01:39.879Z,11.80
2022-09-30T16:04:24.370Z,11.80
2022-09-30T16:06:53.809Z,11.80
2022-09-30T16:09:25.368Z,11.80
2022-09-30T16:11:59.187Z,11.70
2022-09-30T16:14:27.551Z,11.70
2022-09-30T16:16:57.135Z,11.70
2022-09-30T16:19:25.145Z,11.70
2022-09-30T16:21:52.657Z,11.70
2022-09-30T16:24:28.949Z,11.70
2022-09-30T16:26:57.067Z,11.70
2022-09-30T16:29:28.941Z,11.70
2022-09-30T16:31:56.450Z,11.60
2022-09-30T16:34:24.375Z,11.60
2022-09-30T16:36:51.576Z,11.60
2022-09-30T16:39:19.587Z,11.60
2022-09-30T16:41:46.793Z,11.60
2022-09-30T16:44:14.041Z,11.60
2022-09-30T16:46:41.216Z,11.50
2022-09-30T16:49:16.518Z,11.50
2022-09-30T16:51:43.824Z,11.50
2022-09-30T16:54:11.538Z,11.50
2022-09-30T16:56:38.800Z,11.40
2022-09-30T16:59:15.578Z,11.40
2022-09-30T17:01:42.738Z,11.40
2022-09-30T17:04:12.970Z,11.30
2022-09-30T17:06:42.562Z,11.30
2022-09-30T17:09:09.731Z,11.30
2022-09-30T17:11:37.989Z,11.30
2022-09-30T17:14:05.320Z,11.30
2022-09-30T17:16:33.387Z,11.30
2022-09-30T17:19:00.783Z,11.30
2022-09-30T17:21:28.117Z,11.30
2022-09-30T17:23:55.441Z,11.20
2022-09-30T17:26:22.615Z,11.20
2022-09-30T17:28:49.803Z,11.20
2022-09-30T17:31:17.073Z,11.20
2022-09-30T17:33:44.316Z,11.10
2022-09-30T17:36:12.456Z,11.10
2022-09-30T17:38:39.880Z,11.10
2022-09-30T17:41:25.484Z,11.10
2022-09-30T17:43:52.668Z,11.10
2022-09-30T17:46:23.076Z,11.00
2022-09-30T17:48:54.104Z,11.00
2022-09-30T17:51:21.288Z,11.00
2022-09-30T17:53:49.175Z,11.00
2022-09-30T17:56:20.602Z,11.00
2022-09-30T17:58:48.935Z,11.00
2022-09-30T18:01:17.554Z,11.00
2022-09-30T18:03:47.798Z,11.00
2022-09-30T18:06:14.962Z,11.00
2022-09-30T18:08:42.632Z,11.00
2022-09-30T18:11:09.973Z,11.00
2022-09-30T18:13:37.161Z,10.90
2022-09-30T18:16:07.991Z,11.00
2022-09-30T18:18:35.470Z,11.00
2022-09-30T18:21:02.686Z,11.00
2022-09-30T18:23:29.864Z,11.00
2022-09-30T18:25:58.355Z,11.00
2022-09-30T18:28:26.302Z,10.90
2022-09-30T18:30:53.511Z,10.90
2022-09-30T18:33:21.869Z,10.90
2022-09-30T18:35:49.090Z,10.90
2022-09-30T18:38:16.270Z,10.90
2022-09-30T18:40:43.652Z,10.90
2022-09-30T18:43:12.803Z,10.90
2022-09-30T18:45:40.247Z,10.90
2022-09-30T18:48:08.339Z,10.90
2022-09-30T18:50:35.731Z,10.80
2022-09-30T18:53:09.058Z,10.80
2022-09-30T18:55:37.916Z,10.80
2022-09-30T18:58:05.118Z,10.80
2022-09-30T19:00:32.520Z,10.80
2022-09-30T19:02:59.724Z,10.80
2022-09-30T19:05:27.011Z,10.80
2022-09-30T19:07:54.290Z,10.80
2022-09-30T19:10:21.676Z,10.80
2022-09-30T19:12:49.568Z,10.80
2022-09-30T19:15:16.826Z,10.80
2022-09-30T19:17:44.623Z,10.80
2022-09-30T19:20:12.371Z,10.80
2022-09-30T19:22:39.572Z,10.70
2022-09-30T19:25:07.996Z,10.70
2022-09-30T19:27:38.385Z,10.70
2022-09-30T19:30:09.260Z,10.70
2022-09-30T19:32:36.613Z,10.70
2022-09-30T19:35:06.902Z,10.70
2022-09-30T19:37:34.977Z,10.70
2022-09-30T19:40:16.338Z,10.70
2022-09-30T19:42:47.367Z,10.70
2022-09-30T19:45:16.213Z,10.70
2022-09-30T19:47:43.675Z,10.70
2022-09-30T19:50:10.839Z,10.70
2022-09-30T19:52:46.403Z,10.70
2022-09-30T19:55:20.899Z,10.70
2022-09-30T19:57:48.126Z,10.70
2022-09-30T20:00:15.439Z,10.70
2022-09-30T20:02:42.700Z,10.70
2022-09-30T20:05:09.990Z,10.60
2022-09-30T20:07:37.162Z,10.70
2022-09-30T20:10:04.730Z,10.70
2022-09-30T20:12:31.914Z,10.70
2022-09-30T20:15:17.537Z,10.70
2022-09-30T20:17:44.703Z,10.60
2022-09-30T20:20:30.508Z,10.60
2022-09-30T20:23:00.251Z,10.60
2022-09-30T20:25:27.984Z,10.70
2022-09-30T20:27:55.239Z,10.60
2022-09-30T20:30:22.411Z,10.70
2022-09-30T20:32:49.575Z,10.70
2022-09-30T20:35:16.827Z,10.70
2022-09-30T20:37:44.127Z,10.70
2022-09-30T20:40:11.349Z,10.60
2022-09-30T20:42:39.950Z,10.60
2022-09-30T20:45:10.182Z,10.70
2022-09-30T20:47:38.427Z,10.70
2022-09-30T20:50:06.633Z,10.70
2022-09-30T20:52:33.926Z,10.70
2022-09-30T20:55:01.159Z,10.70
2022-09-30T20:57:31.636Z,10.70
2022-09-30T20:59:59.823Z,10.70
2022-09-30T21:02:30.298Z,10.70
2022-09-30T21:04:57.848Z,10.70
2022-09-30T21:07:26.011Z,10.70
2022-09-30T21:09:53.171Z,10.60
2022-09-30T21:12:20.387Z,10.70
2022-09-30T21:14:47.968Z,10.60
2022-09-30T21:17:15.314Z,10.60
2022-09-30T21:19:43.583Z,10.60
2022-09-30T21:22:11.195Z,10.60
2022-09-30T21:24:38.405Z,10.60
2022-09-30T21:27:05.882Z,10.60
2022-09-30T21:29:33.428Z,10.60
2022-09-30T21:32:00.915Z,10.60
2022-09-30T21:34:28.151Z,10.60
2022-09-30T21:36:55.307Z,10.60
2022-09-30T21:39:22.503Z,10.60
2022-09-30T21:41:49.678Z,10.60
2022-09-30T21:44:16.912Z,10.60
2022-09-30T21:46:48.522Z,10.60
2022-09-30T21:49:18.211Z,10.50
2022-09-30T21:51:45.552Z,10.50
2022-09-30T21:54:13.873Z,10.50
2022-09-30T21:56:41.675Z,10.50
2022-09-30T21:59:09.007Z,10.40
2022-09-30T22:01:37.286Z,10.50
2022-09-30T22:04:05.019Z,10.50
2022-09-30T22:06:32.233Z,10.50
2022-09-30T22:09:02.219Z,10.50
2022-09-30T22:11:29.984Z,10.50
2022-09-30T22:13:58.765Z,10.50
2022-09-30T22:16:34.728Z,10.40
2022-09-30T22:19:03.575Z,10.40
2022-09-30T22:21:32.408Z,10.40
2022-09-30T22:24:01.408Z,10.40
2022-09-30T22:26:28.640Z,10.30
2022-09-30T22:28:57.532Z,10.30
2022-09-30T22:31:26.195Z,10.20
2022-09-30T22:34:13.563Z,10.20
2022-09-30T22:36:59.535Z,10.20
2022-09-30T22:39:26.825Z,10.20
2022-09-30T22:41:55.311Z,10.10
2022-09-30T22:44:23.631Z,10.10
2022-09-30T22:46:51.203Z,10.10
2022-09-30T22:49:19.232Z,10.00
2022-09-30T22:51:49.502Z,10.00
2022-09-30T22:54:17.287Z,10.00
2022-09-30T22:56:44.623Z,9.90
2022-09-30T22:59:11.841Z,9.90
2022-09-30T23:01:39.031Z,9.90
2022-09-30T23:04:07.925Z,9.90
2022-09-30T23:06:36.396Z,9.90
2022-09-30T23:09:06.694Z,9.90
2022-09-30T23:11:35.598Z,10.00
2022-09-30T23:14:03.149Z,9.90
2022-09-30T23:16:30.418Z,10.00
2022-09-30T23:18:58.251Z,10.00
2022-09-30T23:21:25.624Z,10.00
2022-09-30T23:23:53.005Z,10.00
2022-09-30T23:26:25.317Z,10.00
2022-09-30T23:29:02.856Z,10.00
2022-09-30T23:31:30.266Z,10.00
2022-09-30T23:33:59.395Z,10.00
2022-09-30T23:36:29.664Z,10.00
2022-09-30T23:39:08.290Z,10.10
2022-09-30T23:41:35.789Z,10.10
2022-09-30T23:44:04.240Z,10.10
2022-09-30T23:46:31.655Z,10.10
2022-09-30T23:48:58.950Z,10.10
2022-09-30T23:51:26.095Z,10.20
2022-09-30T23:53:53.357Z,10.20
2022-09-30T23:56:20.650Z,10.20
2022-09-30T23:58:48.043Z,10.10
